sensor_id;sensor_type;location;lat;lon;timestamp;P1;durP1;ratioP1;P2;durP2;ratioP2
60078;SDS011;45951;45.824;8.824;2024-02-23T00:00:10;4.60;;;3.13;;
60078;SDS011;45951;45.824;8.824;2024-02-23T00:01:51;5.03;;;3.55;;
60078;SDS011;45951;45.824;8.824;2024-02-23T00:03:32;5.45;;;3.53;;
60078;SDS011;45951;45.824;8.824;2024-02-23T00:05:13;5.28;;;3.25;;
60078;SDS011;45951;45.824;8.824;2024-02-23T00:06:53;5.20;;;3.30;;
60078;SDS011;45951;45.824;8.824;2024-02-23T00:08:33;4.55;;;3.17;;
60078;SDS011;45951;45.824;8.824;2024-02-23T00:10:13;4.45;;;2.97;;
60078;SDS011;45951;45.824;8.824;2024-02-23T00:11:54;4.00;;;2.30;;
60078;SDS011;45951;45.824;8.824;2024-02-23T00:13:34;3.13;;;2.10;;
60078;SDS011;45951;45.824;8.824;2024-02-23T00:15:14;2.77;;;1.93;;
60078;SDS011;45951;45.824;8.824;2024-02-23T00:16:54;3.72;;;2.40;;
60078;SDS011;45951;45.824;8.824;2024-02-23T00:18:34;3.75;;;2.13;;
60078;SDS011;45951;45.824;8.824;2024-02-23T00:20:15;2.03;;;1.42;;
60078;SDS011;45951;45.824;8.824;2024-02-23T00:21:55;1.45;;;1.17;;
60078;SDS011;45951;45.824;8.824;2024-02-23T00:23:35;1.70;;;1.25;;
60078;SDS011;45951;45.824;8.824;2024-02-23T00:25:16;1.23;;;0.98;;
60078;SDS011;45951;45.824;8.824;2024-02-23T00:26:56;1.90;;;1.10;;
60078;SDS011;45951;45.824;8.824;2024-02-23T00:28:37;1.30;;;0.98;;
60078;SDS011;45951;45.824;8.824;2024-02-23T00:30:17;1.00;;;0.70;;
60078;SDS011;45951;45.824;8.824;2024-02-23T00:31:57;0.73;;;0.70;;
60078;SDS011;45951;45.824;8.824;2024-02-23T00:33:37;1.42;;;0.90;;
60078;SDS011;45951;45.824;8.824;2024-02-23T00:35:22;1.67;;;0.85;;
60078;SDS011;45951;45.824;8.824;2024-02-23T00:37:02;0.60;;;0.60;;
60078;SDS011;45951;45.824;8.824;2024-02-23T00:38:43;0.60;;;0.60;;
60078;SDS011;45951;45.824;8.824;2024-02-23T00:40:23;0.93;;;0.60;;
60078;SDS011;45951;45.824;8.824;2024-02-23T00:42:04;1.20;;;0.88;;
60078;SDS011;45951;45.824;8.824;2024-02-23T00:43:44;0.40;;;0.40;;
60078;SDS011;45951;45.824;8.824;2024-02-23T00:45:24;1.03;;;0.60;;
60078;SDS011;45951;45.824;8.824;2024-02-23T00:47:04;0.63;;;0.63;;
60078;SDS011;45951;45.824;8.824;2024-02-23T00:48:45;0.57;;;0.50;;
60078;SDS011;45951;45.824;8.824;2024-02-23T00:50:25;0.40;;;0.40;;
60078;SDS011;45951;45.824;8.824;2024-02-23T00:52:06;0.50;;;0.50;;
60078;SDS011;45951;45.824;8.824;2024-02-23T00:53:47;0.60;;;0.60;;
60078;SDS011;45951;45.824;8.824;2024-02-23T00:55:27;0.50;;;0.50;;
60078;SDS011;45951;45.824;8.824;2024-02-23T00:57:07;0.95;;;0.80;;
60078;SDS011;45951;45.824;8.824;2024-02-23T00:58:48;0.47;;;0.45;;
60078;SDS011;45951;45.824;8.824;2024-02-23T01:00:28;0.90;;;0.67;;
60078;SDS011;45951;45.824;8.824;2024-02-23T01:02:08;0.82;;;0.50;;
60078;SDS011;45951;45.824;8.824;2024-02-23T01:03:49;0.40;;;0.40;;
60078;SDS011;45951;45.824;8.824;2024-02-23T01:05:29;0.70;;;0.60;;
60078;SDS011;45951;45.824;8.824;2024-02-23T01:07:12;0.30;;;0.30;;
60078;SDS011;45951;45.824;8.824;2024-02-23T01:08:52;0.47;;;0.47;;
60078;SDS011;45951;45.824;8.824;2024-02-23T01:10:32;0.60;;;0.60;;
60078;SDS011;45951;45.824;8.824;2024-02-23T01:12:12;0.52;;;0.52;;
60078;SDS011;45951;45.824;8.824;2024-02-23T01:13:52;1.23;;;0.83;;
60078;SDS011;45951;45.824;8.824;2024-02-23T01:15:33;0.50;;;0.50;;
60078;SDS011;45951;45.824;8.824;2024-02-23T01:17:14;0.52;;;0.50;;
60078;SDS011;45951;45.824;8.824;2024-02-23T01:18:55;0.52;;;0.40;;
60078;SDS011;45951;45.824;8.824;2024-02-23T01:20:35;0.38;;;0.38;;
60078;SDS011;45951;45.824;8.824;2024-02-23T01:22:16;0.95;;;0.60;;
60078;SDS011;45951;45.824;8.824;2024-02-23T01:23:56;0.50;;;0.50;;
60078;SDS011;45951;45.824;8.824;2024-02-23T01:25:37;0.43;;;0.32;;
60078;SDS011;45951;45.824;8.824;2024-02-23T01:27:17;0.50;;;0.50;;
60078;SDS011;45951;45.824;8.824;2024-02-23T01:28:58;0.43;;;0.43;;
60078;SDS011;45951;45.824;8.824;2024-02-23T01:30:38;0.40;;;0.40;;
60078;SDS011;45951;45.824;8.824;2024-02-23T01:32:19;0.57;;;0.40;;
60078;SDS011;45951;45.824;8.824;2024-02-23T01:33:59;0.30;;;0.30;;
60078;SDS011;45951;45.824;8.824;2024-02-23T01:35:39;0.30;;;0.30;;
60078;SDS011;45951;45.824;8.824;2024-02-23T01:37:20;0.30;;;0.30;;
60078;SDS011;45951;45.824;8.824;2024-02-23T01:39:00;0.30;;;0.30;;
60078;SDS011;45951;45.824;8.824;2024-02-23T01:40:40;0.75;;;0.40;;
60078;SDS011;45951;45.824;8.824;2024-02-23T01:42:21;0.38;;;0.38;;
60078;SDS011;45951;45.824;8.824;2024-02-23T01:44:01;0.30;;;0.30;;
60078;SDS011;45951;45.824;8.824;2024-02-23T01:45:42;1.00;;;0.75;;
60078;SDS011;45951;45.824;8.824;2024-02-23T01:47:22;0.50;;;0.50;;
60078;SDS011;45951;45.824;8.824;2024-02-23T01:49:03;0.30;;;0.30;;
60078;SDS011;45951;45.824;8.824;2024-02-23T01:50:44;0.52;;;0.50;;
60078;SDS011;45951;45.824;8.824;2024-02-23T01:52:24;0.28;;;0.28;;
60078;SDS011;45951;45.824;8.824;2024-02-23T01:54:04;0.30;;;0.30;;
60078;SDS011;45951;45.824;8.824;2024-02-23T01:55:45;0.50;;;0.40;;
60078;SDS011;45951;45.824;8.824;2024-02-23T01:57:25;0.30;;;0.30;;
60078;SDS011;45951;45.824;8.824;2024-02-23T01:59:06;0.65;;;0.40;;
60078;SDS011;45951;45.824;8.824;2024-02-23T02:00:47;0.40;;;0.40;;
60078;SDS011;45951;45.824;8.824;2024-02-23T02:02:29;0.45;;;0.40;;
60078;SDS011;45951;45.824;8.824;2024-02-23T02:04:09;0.30;;;0.30;;
60078;SDS011;45951;45.824;8.824;2024-02-23T02:05:49;0.32;;;0.30;;
60078;SDS011;45951;45.824;8.824;2024-02-23T02:07:31;0.25;;;0.25;;
60078;SDS011;45951;45.824;8.824;2024-02-23T02:09:11;0.93;;;0.40;;
60078;SDS011;45951;45.824;8.824;2024-02-23T02:10:51;0.30;;;0.30;;
60078;SDS011;45951;45.824;8.824;2024-02-23T02:12:31;0.30;;;0.30;;
60078;SDS011;45951;45.824;8.824;2024-02-23T02:14:11;0.40;;;0.33;;
60078;SDS011;45951;45.824;8.824;2024-02-23T02:15:52;0.33;;;0.33;;
60078;SDS011;45951;45.824;8.824;2024-02-23T02:17:32;0.63;;;0.50;;
60078;SDS011;45951;45.824;8.824;2024-02-23T02:19:12;0.40;;;0.40;;
60078;SDS011;45951;45.824;8.824;2024-02-23T02:20:56;0.38;;;0.38;;
60078;SDS011;45951;45.824;8.824;2024-02-23T02:22:37;0.25;;;0.25;;
60078;SDS011;45951;45.824;8.824;2024-02-23T02:24:17;0.30;;;0.30;;
60078;SDS011;45951;45.824;8.824;2024-02-23T02:25:58;0.35;;;0.30;;
60078;SDS011;45951;45.824;8.824;2024-02-23T02:27:38;0.30;;;0.30;;
60078;SDS011;45951;45.824;8.824;2024-02-23T02:29:18;0.28;;;0.28;;
60078;SDS011;45951;45.824;8.824;2024-02-23T02:30:59;0.30;;;0.30;;
60078;SDS011;45951;45.824;8.824;2024-02-23T02:32:39;0.83;;;0.57;;
60078;SDS011;45951;45.824;8.824;2024-02-23T02:34:19;0.22;;;0.22;;
60078;SDS011;45951;45.824;8.824;2024-02-23T02:36:00;0.40;;;0.40;;
60078;SDS011;45951;45.824;8.824;2024-02-23T02:37:40;0.40;;;0.40;;
60078;SDS011;45951;45.824;8.824;2024-02-23T02:39:20;0.30;;;0.30;;
60078;SDS011;45951;45.824;8.824;2024-02-23T02:41:01;0.30;;;0.30;;
60078;SDS011;45951;45.824;8.824;2024-02-23T02:42:41;0.30;;;0.30;;
60078;SDS011;45951;45.824;8.824;2024-02-23T02:44:21;0.40;;;0.40;;
60078;SDS011;45951;45.824;8.824;2024-02-23T02:46:01;0.30;;;0.30;;
60078;SDS011;45951;45.824;8.824;2024-02-23T02:47:42;0.40;;;0.40;;
60078;SDS011;45951;45.824;8.824;2024-02-23T02:49:22;1.08;;;0.30;;
60078;SDS011;45951;45.824;8.824;2024-02-23T02:51:02;0.38;;;0.30;;
60078;SDS011;45951;45.824;8.824;2024-02-23T02:52:43;0.35;;;0.28;;
60078;SDS011;45951;45.824;8.824;2024-02-23T02:54:23;0.30;;;0.30;;
60078;SDS011;45951;45.824;8.824;2024-02-23T02:56:05;0.40;;;0.40;;
60078;SDS011;45951;45.824;8.824;2024-02-23T02:57:45;0.40;;;0.40;;
60078;SDS011;45951;45.824;8.824;2024-02-23T02:59:26;0.30;;;0.30;;
60078;SDS011;45951;45.824;8.824;2024-02-23T03:01:06;0.30;;;0.30;;
60078;SDS011;45951;45.824;8.824;2024-02-23T03:02:46;0.20;;;0.20;;
60078;SDS011;45951;45.824;8.824;2024-02-23T03:04:26;0.30;;;0.30;;
60078;SDS011;45951;45.824;8.824;2024-02-23T03:06:06;0.40;;;0.40;;
60078;SDS011;45951;45.824;8.824;2024-02-23T03:07:47;0.57;;;0.52;;
60078;SDS011;45951;45.824;8.824;2024-02-23T03:09:27;0.30;;;0.30;;
60078;SDS011;45951;45.824;8.824;2024-02-23T03:11:07;0.50;;;0.40;;
60078;SDS011;45951;45.824;8.824;2024-02-23T03:12:48;0.30;;;0.30;;
60078;SDS011;45951;45.824;8.824;2024-02-23T03:14:28;0.30;;;0.30;;
60078;SDS011;45951;45.824;8.824;2024-02-23T03:16:15;0.45;;;0.43;;
60078;SDS011;45951;45.824;8.824;2024-02-23T03:17:56;0.40;;;0.40;;
60078;SDS011;45951;45.824;8.824;2024-02-23T03:19:37;0.40;;;0.40;;
60078;SDS011;45951;45.824;8.824;2024-02-23T03:21:17;0.30;;;0.30;;
60078;SDS011;45951;45.824;8.824;2024-02-23T03:22:57;0.32;;;0.32;;
60078;SDS011;45951;45.824;8.824;2024-02-23T03:24:37;0.30;;;0.30;;
60078;SDS011;45951;45.824;8.824;2024-02-23T03:26:18;0.47;;;0.47;;
60078;SDS011;45951;45.824;8.824;2024-02-23T03:27:58;0.30;;;0.30;;
60078;SDS011;45951;45.824;8.824;2024-02-23T03:29:38;1.17;;;0.47;;
60078;SDS011;45951;45.824;8.824;2024-02-23T03:31:19;0.40;;;0.40;;
60078;SDS011;45951;45.824;8.824;2024-02-23T03:32:59;0.40;;;0.40;;
60078;SDS011;45951;45.824;8.824;2024-02-23T03:34:39;0.60;;;0.43;;
60078;SDS011;45951;45.824;8.824;2024-02-23T03:36:20;0.40;;;0.40;;
60078;SDS011;45951;45.824;8.824;2024-02-23T03:38:03;0.30;;;0.30;;
60078;SDS011;45951;45.824;8.824;2024-02-23T03:39:43;0.30;;;0.30;;
60078;SDS011;45951;45.824;8.824;2024-02-23T03:41:24;0.20;;;0.20;;
60078;SDS011;45951;45.824;8.824;2024-02-23T03:43:04;0.30;;;0.30;;
60078;SDS011;45951;45.824;8.824;2024-02-23T03:44:45;0.50;;;0.50;;
60078;SDS011;45951;45.824;8.824;2024-02-23T03:46:28;0.30;;;0.30;;
60078;SDS011;45951;45.824;8.824;2024-02-23T03:48:08;0.30;;;0.30;;
60078;SDS011;45951;45.824;8.824;2024-02-23T03:49:48;0.27;;;0.27;;
60078;SDS011;45951;45.824;8.824;2024-02-23T03:51:28;0.30;;;0.30;;
60078;SDS011;45951;45.824;8.824;2024-02-23T03:53:09;0.63;;;0.50;;
60078;SDS011;45951;45.824;8.824;2024-02-23T03:54:49;0.20;;;0.20;;
60078;SDS011;45951;45.824;8.824;2024-02-23T03:56:38;0.50;;;0.50;;
60078;SDS011;45951;45.824;8.824;2024-02-23T03:58:19;0.30;;;0.30;;
60078;SDS011;45951;45.824;8.824;2024-02-23T03:59:59;0.30;;;0.30;;
60078;SDS011;45951;45.824;8.824;2024-02-23T04:01:39;0.30;;;0.30;;
60078;SDS011;45951;45.824;8.824;2024-02-23T04:03:19;0.20;;;0.20;;
60078;SDS011;45951;45.824;8.824;2024-02-23T04:05:00;0.40;;;0.30;;
60078;SDS011;45951;45.824;8.824;2024-02-23T04:06:40;0.63;;;0.28;;
60078;SDS011;45951;45.824;8.824;2024-02-23T04:08:21;0.40;;;0.40;;
60078;SDS011;45951;45.824;8.824;2024-02-23T04:10:04;0.30;;;0.20;;
60078;SDS011;45951;45.824;8.824;2024-02-23T04:11:46;0.65;;;0.35;;
60078;SDS011;45951;45.824;8.824;2024-02-23T04:13:27;0.30;;;0.30;;
60078;SDS011;45951;45.824;8.824;2024-02-23T04:15:07;0.30;;;0.30;;
60078;SDS011;45951;45.824;8.824;2024-02-23T04:16:47;0.40;;;0.40;;
60078;SDS011;45951;45.824;8.824;2024-02-23T04:18:27;0.27;;;0.20;;
60078;SDS011;45951;45.824;8.824;2024-02-23T04:20:08;0.50;;;0.50;;
60078;SDS011;45951;45.824;8.824;2024-02-23T04:21:49;0.40;;;0.40;;
60078;SDS011;45951;45.824;8.824;2024-02-23T04:23:30;0.38;;;0.38;;
60078;SDS011;45951;45.824;8.824;2024-02-23T04:25:10;0.52;;;0.40;;
60078;SDS011;45951;45.824;8.824;2024-02-23T04:26:50;0.50;;;0.50;;
60078;SDS011;45951;45.824;8.824;2024-02-23T04:28:30;0.30;;;0.30;;
60078;SDS011;45951;45.824;8.824;2024-02-23T04:30:11;0.40;;;0.40;;
60078;SDS011;45951;45.824;8.824;2024-02-23T04:31:52;0.40;;;0.40;;
60078;SDS011;45951;45.824;8.824;2024-02-23T04:33:32;0.53;;;0.50;;
60078;SDS011;45951;45.824;8.824;2024-02-23T04:35:12;0.30;;;0.30;;
60078;SDS011;45951;45.824;8.824;2024-02-23T04:36:53;0.40;;;0.40;;
60078;SDS011;45951;45.824;8.824;2024-02-23T04:38:33;0.32;;;0.32;;
60078;SDS011;45951;45.824;8.824;2024-02-23T04:40:16;0.40;;;0.40;;
60078;SDS011;45951;45.824;8.824;2024-02-23T04:41:56;0.43;;;0.43;;
60078;SDS011;45951;45.824;8.824;2024-02-23T04:43:37;0.30;;;0.30;;
60078;SDS011;45951;45.824;8.824;2024-02-23T04:45:20;0.68;;;0.40;;
60078;SDS011;45951;45.824;8.824;2024-02-23T04:47:01;0.50;;;0.50;;
60078;SDS011;45951;45.824;8.824;2024-02-23T04:48:41;0.40;;;0.40;;
60078;SDS011;45951;45.824;8.824;2024-02-23T04:50:21;0.40;;;0.40;;
60078;SDS011;45951;45.824;8.824;2024-02-23T04:52:02;0.40;;;0.40;;
60078;SDS011;45951;45.824;8.824;2024-02-23T04:53:42;0.50;;;0.50;;
60078;SDS011;45951;45.824;8.824;2024-02-23T04:55:23;0.75;;;0.45;;
60078;SDS011;45951;45.824;8.824;2024-02-23T04:57:03;0.47;;;0.47;;
60078;SDS011;45951;45.824;8.824;2024-02-23T04:58:43;0.30;;;0.30;;
60078;SDS011;45951;45.824;8.824;2024-02-23T05:00:24;0.60;;;0.40;;
60078;SDS011;45951;45.824;8.824;2024-02-23T05:02:08;0.63;;;0.50;;
60078;SDS011;45951;45.824;8.824;2024-02-23T05:03:48;0.47;;;0.47;;
60078;SDS011;45951;45.824;8.824;2024-02-23T05:05:29;1.37;;;0.50;;
60078;SDS011;45951;45.824;8.824;2024-02-23T05:07:10;0.30;;;0.30;;
60078;SDS011;45951;45.824;8.824;2024-02-23T05:08:50;0.32;;;0.32;;
60078;SDS011;45951;45.824;8.824;2024-02-23T05:10:30;0.70;;;0.50;;
60078;SDS011;45951;45.824;8.824;2024-02-23T05:12:11;0.50;;;0.50;;
60078;SDS011;45951;45.824;8.824;2024-02-23T05:13:51;0.53;;;0.40;;
60078;SDS011;45951;45.824;8.824;2024-02-23T05:15:31;0.90;;;0.40;;
60078;SDS011;45951;45.824;8.824;2024-02-23T05:17:11;0.50;;;0.50;;
60078;SDS011;45951;45.824;8.824;2024-02-23T05:18:51;0.40;;;0.40;;
60078;SDS011;45951;45.824;8.824;2024-02-23T05:20:32;0.50;;;0.50;;
60078;SDS011;45951;45.824;8.824;2024-02-23T05:22:12;0.52;;;0.50;;
60078;SDS011;45951;45.824;8.824;2024-02-23T05:23:52;0.40;;;0.40;;
60078;SDS011;45951;45.824;8.824;2024-02-23T05:25:32;1.02;;;0.60;;
60078;SDS011;45951;45.824;8.824;2024-02-23T05:27:13;0.30;;;0.30;;
60078;SDS011;45951;45.824;8.824;2024-02-23T05:28:53;0.40;;;0.40;;
60078;SDS011;45951;45.824;8.824;2024-02-23T05:30:33;0.60;;;0.40;;
60078;SDS011;45951;45.824;8.824;2024-02-23T05:32:13;0.60;;;0.60;;
60078;SDS011;45951;45.824;8.824;2024-02-23T05:33:54;1.15;;;0.50;;
60078;SDS011;45951;45.824;8.824;2024-02-23T05:35:34;0.80;;;0.80;;
60078;SDS011;45951;45.824;8.824;2024-02-23T05:37:14;0.40;;;0.40;;
60078;SDS011;45951;45.824;8.824;2024-02-23T05:38:55;0.50;;;0.40;;
60078;SDS011;45951;45.824;8.824;2024-02-23T05:40:35;0.93;;;0.40;;
60078;SDS011;45951;45.824;8.824;2024-02-23T05:42:16;0.60;;;0.60;;
60078;SDS011;45951;45.824;8.824;2024-02-23T05:43:56;0.40;;;0.40;;
60078;SDS011;45951;45.824;8.824;2024-02-23T05:45:36;0.50;;;0.50;;
60078;SDS011;45951;45.824;8.824;2024-02-23T05:47:17;0.45;;;0.45;;
60078;SDS011;45951;45.824;8.824;2024-02-23T05:48:57;0.88;;;0.80;;
60078;SDS011;45951;45.824;8.824;2024-02-23T05:50:38;1.95;;;0.50;;
60078;SDS011;45951;45.824;8.824;2024-02-23T05:52:18;0.57;;;0.55;;
60078;SDS011;45951;45.824;8.824;2024-02-23T05:53:58;0.50;;;0.50;;
60078;SDS011;45951;45.824;8.824;2024-02-23T05:55:38;0.50;;;0.50;;
60078;SDS011;45951;45.824;8.824;2024-02-23T05:57:18;0.60;;;0.60;;
60078;SDS011;45951;45.824;8.824;2024-02-23T05:58:59;1.48;;;0.60;;
60078;SDS011;45951;45.824;8.824;2024-02-23T06:00:39;0.60;;;0.60;;
60078;SDS011;45951;45.824;8.824;2024-02-23T06:02:19;0.40;;;0.40;;
60078;SDS011;45951;45.824;8.824;2024-02-23T06:03:59;0.57;;;0.50;;
60078;SDS011;45951;45.824;8.824;2024-02-23T06:05:39;0.77;;;0.50;;
60078;SDS011;45951;45.824;8.824;2024-02-23T06:07:20;0.40;;;0.40;;
60078;SDS011;45951;45.824;8.824;2024-02-23T06:09:06;1.05;;;0.57;;
60078;SDS011;45951;45.824;8.824;2024-02-23T06:10:47;0.73;;;0.70;;
60078;SDS011;45951;45.824;8.824;2024-02-23T06:12:27;0.57;;;0.57;;
60078;SDS011;45951;45.824;8.824;2024-02-23T06:14:08;0.55;;;0.55;;
60078;SDS011;45951;45.824;8.824;2024-02-23T06:15:48;0.30;;;0.30;;
60078;SDS011;45951;45.824;8.824;2024-02-23T06:17:28;0.93;;;0.90;;
60078;SDS011;45951;45.824;8.824;2024-02-23T06:19:08;0.80;;;0.80;;
60078;SDS011;45951;45.824;8.824;2024-02-23T06:20:49;0.80;;;0.60;;
60078;SDS011;45951;45.824;8.824;2024-02-23T06:22:29;0.50;;;0.50;;
60078;SDS011;45951;45.824;8.824;2024-02-23T06:24:09;0.55;;;0.52;;
60078;SDS011;45951;45.824;8.824;2024-02-23T06:25:49;0.47;;;0.47;;
60078;SDS011;45951;45.824;8.824;2024-02-23T06:27:30;0.40;;;0.40;;
60078;SDS011;45951;45.824;8.824;2024-02-23T06:29:10;0.70;;;0.40;;
60078;SDS011;45951;45.824;8.824;2024-02-23T06:30:51;0.52;;;0.52;;
60078;SDS011;45951;45.824;8.824;2024-02-23T06:32:31;0.37;;;0.37;;
60078;SDS011;45951;45.824;8.824;2024-02-23T06:34:11;0.30;;;0.30;;
60078;SDS011;45951;45.824;8.824;2024-02-23T06:35:51;0.33;;;0.33;;
60078;SDS011;45951;45.824;8.824;2024-02-23T06:37:32;0.47;;;0.47;;
60078;SDS011;45951;45.824;8.824;2024-02-23T06:39:12;0.50;;;0.50;;
60078;SDS011;45951;45.824;8.824;2024-02-23T06:40:53;0.40;;;0.40;;
60078;SDS011;45951;45.824;8.824;2024-02-23T06:42:35;0.43;;;0.43;;
60078;SDS011;45951;45.824;8.824;2024-02-23T06:44:15;0.57;;;0.57;;
60078;SDS011;45951;45.824;8.824;2024-02-23T06:45:55;0.40;;;0.40;;
60078;SDS011;45951;45.824;8.824;2024-02-23T06:47:35;0.60;;;0.50;;
60078;SDS011;45951;45.824;8.824;2024-02-23T06:49:16;1.02;;;0.60;;
60078;SDS011;45951;45.824;8.824;2024-02-23T06:50:56;0.80;;;0.60;;
60078;SDS011;45951;45.824;8.824;2024-02-23T06:52:37;0.98;;;0.60;;
60078;SDS011;45951;45.824;8.824;2024-02-23T06:54:17;0.50;;;0.50;;
60078;SDS011;45951;45.824;8.824;2024-02-23T06:55:58;0.55;;;0.52;;
60078;SDS011;45951;45.824;8.824;2024-02-23T06:57:39;0.73;;;0.60;;
60078;SDS011;45951;45.824;8.824;2024-02-23T06:59:19;0.50;;;0.40;;
60078;SDS011;45951;45.824;8.824;2024-02-23T07:00:59;0.40;;;0.40;;
60078;SDS011;45951;45.824;8.824;2024-02-23T07:02:41;0.80;;;0.68;;
60078;SDS011;45951;45.824;8.824;2024-02-23T07:04:21;1.35;;;0.70;;
60078;SDS011;45951;45.824;8.824;2024-02-23T07:06:01;1.35;;;0.50;;
60078;SDS011;45951;45.824;8.824;2024-02-23T07:07:43;0.75;;;0.75;;
60078;SDS011;45951;45.824;8.824;2024-02-23T07:09:23;0.70;;;0.70;;
60078;SDS011;45951;45.824;8.824;2024-02-23T07:11:03;2.22;;;0.90;;
60078;SDS011;45951;45.824;8.824;2024-02-23T07:12:44;0.70;;;0.60;;
60078;SDS011;45951;45.824;8.824;2024-02-23T07:14:24;0.70;;;0.63;;
60078;SDS011;45951;45.824;8.824;2024-02-23T07:16:04;0.60;;;0.60;;
60078;SDS011;45951;45.824;8.824;2024-02-23T07:17:45;1.60;;;1.10;;
60078;SDS011;45951;45.824;8.824;2024-02-23T07:19:25;1.80;;;1.00;;
60078;SDS011;45951;45.824;8.824;2024-02-23T07:21:05;1.10;;;0.98;;
60078;SDS011;45951;45.824;8.824;2024-02-23T07:22:46;0.90;;;0.80;;
60078;SDS011;45951;45.824;8.824;2024-02-23T07:24:26;0.50;;;0.50;;
60078;SDS011;45951;45.824;8.824;2024-02-23T07:26:06;0.70;;;0.50;;
60078;SDS011;45951;45.824;8.824;2024-02-23T07:27:47;1.35;;;0.80;;
60078;SDS011;45951;45.824;8.824;2024-02-23T07:29:29;0.57;;;0.57;;
60078;SDS011;45951;45.824;8.824;2024-02-23T07:31:10;1.55;;;0.93;;
60078;SDS011;45951;45.824;8.824;2024-02-23T07:32:51;2.67;;;1.20;;
60078;SDS011;45951;45.824;8.824;2024-02-23T07:34:31;2.63;;;1.20;;
60078;SDS011;45951;45.824;8.824;2024-02-23T07:36:14;2.28;;;1.40;;
60078;SDS011;45951;45.824;8.824;2024-02-23T07:37:55;4.95;;;2.55;;
60078;SDS011;45951;45.824;8.824;2024-02-23T07:39:35;2.80;;;1.63;;
60078;SDS011;45951;45.824;8.824;2024-02-23T07:41:15;8.95;;;3.10;;
60078;SDS011;45951;45.824;8.824;2024-02-23T07:42:57;5.20;;;2.30;;
60078;SDS011;45951;45.824;8.824;2024-02-23T07:44:38;2.30;;;1.47;;
60078;SDS011;45951;45.824;8.824;2024-02-23T07:46:18;3.08;;;1.50;;
60078;SDS011;45951;45.824;8.824;2024-02-23T07:47:59;2.40;;;1.40;;
60078;SDS011;45951;45.824;8.824;2024-02-23T07:49:39;1.52;;;1.08;;
60078;SDS011;45951;45.824;8.824;2024-02-23T07:51:22;1.98;;;1.20;;
60078;SDS011;45951;45.824;8.824;2024-02-23T07:53:03;3.10;;;1.10;;
60078;SDS011;45951;45.824;8.824;2024-02-23T07:54:44;1.25;;;0.90;;
60078;SDS011;45951;45.824;8.824;2024-02-23T07:56:24;1.20;;;0.90;;
60078;SDS011;45951;45.824;8.824;2024-02-23T07:58:04;1.03;;;0.70;;
60078;SDS011;45951;45.824;8.824;2024-02-23T07:59:44;2.00;;;0.90;;
60078;SDS011;45951;45.824;8.824;2024-02-23T08:01:25;1.17;;;0.87;;
60078;SDS011;45951;45.824;8.824;2024-02-23T08:03:05;0.93;;;0.90;;
60078;SDS011;45951;45.824;8.824;2024-02-23T08:04:46;0.95;;;0.70;;
60078;SDS011;45951;45.824;8.824;2024-02-23T08:06:27;0.80;;;0.80;;
60078;SDS011;45951;45.824;8.824;2024-02-23T08:08:07;0.43;;;0.40;;
60078;SDS011;45951;45.824;8.824;2024-02-23T08:09:48;0.65;;;0.60;;
60078;SDS011;45951;45.824;8.824;2024-02-23T08:11:28;0.70;;;0.70;;
60078;SDS011;45951;45.824;8.824;2024-02-23T08:13:08;0.77;;;0.77;;
60078;SDS011;45951;45.824;8.824;2024-02-23T08:14:50;0.63;;;0.50;;
60078;SDS011;45951;45.824;8.824;2024-02-23T08:16:33;0.93;;;0.70;;
60078;SDS011;45951;45.824;8.824;2024-02-23T08:18:13;0.70;;;0.63;;
60078;SDS011;45951;45.824;8.824;2024-02-23T08:19:53;0.68;;;0.68;;
60078;SDS011;45951;45.824;8.824;2024-02-23T08:21:33;2.00;;;0.77;;
60078;SDS011;45951;45.824;8.824;2024-02-23T08:23:14;1.20;;;0.90;;
60078;SDS011;45951;45.824;8.824;2024-02-23T08:24:54;0.50;;;0.50;;
60078;SDS011;45951;45.824;8.824;2024-02-23T08:26:34;0.47;;;0.47;;
60078;SDS011;45951;45.824;8.824;2024-02-23T08:28:14;0.85;;;0.77;;
60078;SDS011;45951;45.824;8.824;2024-02-23T08:29:55;1.40;;;0.80;;
60078;SDS011;45951;45.824;8.824;2024-02-23T08:31:35;0.50;;;0.50;;
60078;SDS011;45951;45.824;8.824;2024-02-23T08:33:15;0.55;;;0.55;;
60078;SDS011;45951;45.824;8.824;2024-02-23T08:34:55;1.27;;;0.77;;
60078;SDS011;45951;45.824;8.824;2024-02-23T08:36:39;0.93;;;0.52;;
60078;SDS011;45951;45.824;8.824;2024-02-23T08:38:19;1.70;;;0.95;;
60078;SDS011;45951;45.824;8.824;2024-02-23T08:39:59;1.40;;;0.93;;
60078;SDS011;45951;45.824;8.824;2024-02-23T08:41:41;1.83;;;0.70;;
60078;SDS011;45951;45.824;8.824;2024-02-23T08:43:21;0.70;;;0.68;;
60078;SDS011;45951;45.824;8.824;2024-02-23T08:45:01;0.85;;;0.52;;
60078;SDS011;45951;45.824;8.824;2024-02-23T08:46:42;0.57;;;0.57;;
60078;SDS011;45951;45.824;8.824;2024-02-23T08:48:22;0.50;;;0.50;;
60078;SDS011;45951;45.824;8.824;2024-02-23T08:50:02;0.65;;;0.60;;
60078;SDS011;45951;45.824;8.824;2024-02-23T08:51:44;1.20;;;0.63;;
60078;SDS011;45951;45.824;8.824;2024-02-23T08:53:24;1.00;;;0.60;;
60078;SDS011;45951;45.824;8.824;2024-02-23T08:55:04;0.93;;;0.50;;
60078;SDS011;45951;45.824;8.824;2024-02-23T08:56:45;1.45;;;0.77;;
60078;SDS011;45951;45.824;8.824;2024-02-23T08:58:25;0.52;;;0.52;;
60078;SDS011;45951;45.824;8.824;2024-02-23T09:00:05;1.47;;;0.73;;
60078;SDS011;45951;45.824;8.824;2024-02-23T09:01:47;1.30;;;0.60;;
60078;SDS011;45951;45.824;8.824;2024-02-23T09:03:27;0.93;;;0.60;;
60078;SDS011;45951;45.824;8.824;2024-02-23T09:05:07;0.50;;;0.50;;
60078;SDS011;45951;45.824;8.824;2024-02-23T09:06:48;0.50;;;0.50;;
60078;SDS011;45951;45.824;8.824;2024-02-23T09:08:30;0.65;;;0.60;;
60078;SDS011;45951;45.824;8.824;2024-02-23T09:10:10;0.52;;;0.50;;
60078;SDS011;45951;45.824;8.824;2024-02-23T09:11:51;1.38;;;0.70;;
60078;SDS011;45951;45.824;8.824;2024-02-23T09:13:32;1.05;;;0.57;;
60078;SDS011;45951;45.824;8.824;2024-02-23T09:15:12;0.65;;;0.65;;
60078;SDS011;45951;45.824;8.824;2024-02-23T09:16:52;0.90;;;0.80;;
60078;SDS011;45951;45.824;8.824;2024-02-23T09:18:33;0.65;;;0.63;;
60078;SDS011;45951;45.824;8.824;2024-02-23T09:20:13;1.43;;;0.70;;
60078;SDS011;45951;45.824;8.824;2024-02-23T09:21:53;1.00;;;0.90;;
60078;SDS011;45951;45.824;8.824;2024-02-23T09:23:33;1.20;;;1.10;;
60078;SDS011;45951;45.824;8.824;2024-02-23T09:25:14;2.40;;;1.15;;
60078;SDS011;45951;45.824;8.824;2024-02-23T09:26:54;2.63;;;1.40;;
60078;SDS011;45951;45.824;8.824;2024-02-23T09:28:35;1.92;;;1.10;;
60078;SDS011;45951;45.824;8.824;2024-02-23T09:30:15;2.83;;;1.63;;
60078;SDS011;45951;45.824;8.824;2024-02-23T09:31:55;1.50;;;1.40;;
60078;SDS011;45951;45.824;8.824;2024-02-23T09:33:36;1.63;;;1.10;;
60078;SDS011;45951;45.824;8.824;2024-02-23T09:35:16;2.28;;;1.30;;
60078;SDS011;45951;45.824;8.824;2024-02-23T09:36:56;1.45;;;1.10;;
60078;SDS011;45951;45.824;8.824;2024-02-23T09:38:36;0.90;;;0.90;;
60078;SDS011;45951;45.824;8.824;2024-02-23T09:40:17;3.00;;;1.10;;
60078;SDS011;45951;45.824;8.824;2024-02-23T09:41:57;1.58;;;1.20;;
60078;SDS011;45951;45.824;8.824;2024-02-23T09:43:37;1.00;;;0.90;;
60078;SDS011;45951;45.824;8.824;2024-02-23T09:45:17;1.85;;;1.55;;
60078;SDS011;45951;45.824;8.824;2024-02-23T09:46:57;2.67;;;1.25;;
60078;SDS011;45951;45.824;8.824;2024-02-23T09:48:38;1.40;;;1.10;;
60078;SDS011;45951;45.824;8.824;2024-02-23T09:50:19;1.30;;;0.90;;
60078;SDS011;45951;45.824;8.824;2024-02-23T09:52:01;1.10;;;1.00;;
60078;SDS011;45951;45.824;8.824;2024-02-23T09:53:41;1.73;;;1.13;;
60078;SDS011;45951;45.824;8.824;2024-02-23T09:55:22;1.60;;;1.20;;
60078;SDS011;45951;45.824;8.824;2024-02-23T09:57:02;1.60;;;1.20;;
60078;SDS011;45951;45.824;8.824;2024-02-23T09:58:46;2.25;;;1.15;;
60078;SDS011;45951;45.824;8.824;2024-02-23T10:00:27;2.47;;;1.23;;
60078;SDS011;45951;45.824;8.824;2024-02-23T10:02:08;1.55;;;1.30;;
60078;SDS011;45951;45.824;8.824;2024-02-23T10:03:51;2.00;;;1.25;;
60078;SDS011;45951;45.824;8.824;2024-02-23T10:05:32;2.88;;;1.45;;